Time;durP1;ratioP1;P1;durP2;ratioP2;P2;SDS_P1;SDS_P2;PMS_P1;PMS_P2;Temp;Humidity;BMP_temperature;BMP_pressure;BME280_temperature;BME280_humidity;BME280_pressure;Samples;Min_cycle;Max_cycle;Signal;HPM_P1;HPM_P2
2022/04/12 00:00:53;;;;;;;2.08;1.40;;;;;;;12.95;50.65;100975.19;5033535;28;20029;-53
2022/04/12 00:03:18;;;;;;;3.35;1.30;;;;;;;12.95;50.68;100965.75;5035280;28;20021;-51
2022/04/12 00:05:45;;;;;;;2.42;1.40;;;;;;;12.93;50.65;100954.47;5034798;28;20116;-50
2022/04/12 00:08:10;;;;;;;3.85;1.42;;;;;;;12.94;50.52;100953.63;5036191;28;20029;-54
2022/04/12 00:10:36;;;;;;;1.80;1.10;;;;;;;12.96;50.58;100945.91;5037195;28;20449;-54
2022/04/12 00:13:03;;;;;;;2.53;1.60;;;;;;;12.94;50.48;100942.44;5038357;28;20033;-54
2022/04/12 00:15:28;;;;;;;2.08;1.23;;;;;;;12.93;50.29;100938.09;5037288;28;20045;-50
2022/04/12 00:20:39;;;;;;;1.98;1.35;;;;;;;12.93;50.64;100940.69;5052592;28;20059;-51
2022/04/12 00:23:07;;;;;;;2.10;1.30;;;;;;;12.93;50.84;100935.50;5052274;28;20033;-55
2022/04/12 00:25:32;;;;;;;1.90;1.17;;;;;;;12.92;50.72;100932.03;5052429;28;20032;-54
2022/04/12 00:27:59;;;;;;;3.17;1.25;;;;;;;12.94;50.47;100942.44;5051267;28;20028;-52
2022/04/12 00:30:26;;;;;;;2.22;1.15;;;;;;;12.93;50.72;100932.91;5025684;28;20024;-53
2022/04/12 00:32:52;;;;;;;2.60;1.40;;;;;;;12.93;50.69;100931.19;5027332;28;20024;-52
2022/04/12 00:35:20;;;;;;;2.58;1.38;;;;;;;12.92;50.86;100933.75;5029024;28;20033;-53
2022/04/12 00:37:45;;;;;;;;;;;;;;;13.02;50.58;100923.63;5025997;28;20163;-51
2022/04/12 00:40:13;;;;;;;1.73;1.10;;;;;;;12.93;50.68;100927.75;5027893;28;20003;-51
2022/04/12 00:42:38;;;;;;;2.63;1.30;;;;;;;12.94;50.51;100926.91;5025652;28;20060;-53
2022/04/12 00:45:04;;;;;;;2.15;1.30;;;;;;;12.93;50.63;100935.50;5027323;28;20049;-53
2022/04/12 00:47:30;;;;;;;3.63;1.40;;;;;;;12.92;50.71;100931.16;5027831;28;20108;-51
2022/04/12 00:49:55;;;;;;;1.90;1.38;;;;;;;12.92;50.66;100929.44;5030777;28;20406;-52
2022/04/12 00:52:21;;;;;;;2.45;1.40;;;;;;;12.91;50.75;100940.66;5029365;28;20485;-53
2022/04/12 00:54:48;;;;;;;2.67;1.50;;;;;;;12.92;50.93;100944.09;5030049;28;20036;-50
2022/04/12 00:57:14;;;;;;;2.50;1.38;;;;;;;12.91;50.78;100932.00;5029325;28;20090;-55
2022/04/12 00:59:43;;;;;;;1.95;1.20;;;;;;;12.91;50.74;100924.25;5033063;28;20662;-55
2022/04/12 01:02:09;;;;;;;2.97;1.20;;;;;;;12.91;50.61;100932.00;5031263;28;20494;-52
2022/04/12 01:04:34;;;;;;;2.03;1.17;;;;;;;12.91;50.82;100934.59;5032302;28;20116;-54
2022/04/12 01:07:00;;;;;;;1.98;1.30;;;;;;;12.91;50.83;100934.59;5033180;28;20044;-53
2022/04/12 01:09:26;;;;;;;2.05;1.30;;;;;;;12.91;50.85;100937.16;5033313;28;20032;-51
2022/04/12 01:11:56;;;;;;;1.73;1.20;;;;;;;12.89;50.87;100931.97;5034818;28;20025;-54
2022/04/12 01:14:23;;;;;;;1.85;1.20;;;;;;;12.90;50.87;100925.97;5034466;28;20060;-52
2022/04/12 01:16:48;;;;;;;1.98;1.20;;;;;;;12.91;50.53;100926.81;5035879;28;20037;-50
2022/04/12 01:19:14;;;;;;;3.20;1.52;;;;;;;12.91;50.82;100926.81;5036506;28;20044;-55
2022/04/12 01:22:00;;;;;;;1.42;1.17;;;;;;;12.91;50.87;100926.81;5036935;28;20017;-52
2022/04/12 01:24:26;;;;;;;2.40;1.35;;;;;;;12.92;50.78;100926.00;5027062;28;20036;-53
2022/04/12 01:26:51;;;;;;;3.80;1.50;;;;;;;12.91;50.75;100935.47;5025618;28;20022;-51
2022/04/12 01:29:17;;;;;;;1.55;1.27;;;;;;;12.90;50.62;100931.13;5024248;28;20038;-53
2022/04/12 01:31:42;;;;;;;2.55;1.40;;;;;;;12.91;50.91;100925.13;5022493;28;20029;-52
2022/04/12 01:34:07;;;;;;;2.53;1.42;;;;;;;12.90;50.82;100925.97;5020853;28;20427;-53
2022/04/12 01:36:33;;;;;;;2.40;1.40;;;;;;;12.90;50.84;100922.47;5024928;28;20427;-55
2022/04/12 01:38:58;;;;;;;2.55;1.55;;;;;;;12.91;50.76;100926.81;5023594;28;20483;-53
2022/04/12 01:41:23;;;;;;;2.22;1.27;;;;;;;12.90;50.78;100923.38;5027561;28;20304;-50
2022/04/12 01:43:49;;;;;;;2.03;1.40;;;;;;;12.90;50.86;100922.47;5024135;28;20029;-53
2022/04/12 01:46:14;;;;;;;2.40;1.52;;;;;;;12.89;50.84;100913.00;5027521;28;20135;-52
2022/04/12 01:48:39;;;;;;;2.88;1.40;;;;;;;12.89;50.68;100918.19;5026843;28;20033;-55
2022/04/12 01:51:05;;;;;;;2.35;1.50;;;;;;;12.90;50.86;100917.31;5028410;28;20021;-55
2022/04/12 01:53:30;;;;;;;2.00;1.20;;;;;;;12.88;50.81;100916.44;5027412;28;20031;-55
2022/04/12 01:55:55;;;;;;;3.55;1.50;;;;;;;12.89;50.80;100916.44;5029984;28;20086;-55
2022/04/12 01:58:21;;;;;;;2.10;1.40;;;;;;;12.89;50.63;100907.81;5030103;28;20033;-53
2022/04/12 02:00:46;;;;;;;3.28;1.52;;;;;;;12.88;50.80;100903.50;5030094;28;20014;-53
2022/04/12 02:03:12;;;;;;;3.17;1.33;;;;;;;12.88;51.00;100903.50;5031422;28;20025;-55
2022/04/12 02:05:39;;;;;;;2.63;1.60;;;;;;;12.88;50.83;100893.16;5030901;28;20017;-53
2022/04/12 02:08:05;;;;;;;2.22;1.40;;;;;;;12.88;50.90;100894.00;5034749;28;20032;-54
2022/04/12 02:10:31;;;;;;;2.28;1.50;;;;;;;12.88;51.06;100903.50;5034993;28;20039;-52
2022/04/12 02:12:56;;;;;;;3.13;1.52;;;;;;;12.88;50.69;100911.25;5032372;28;20029;-53
2022/04/12 02:15:21;;;;;;;3.55;1.73;;;;;;;12.87;50.92;100910.34;5033847;28;20037;-53
2022/04/12 02:17:47;;;;;;;2.75;1.60;;;;;;;12.87;50.95;100917.25;5038850;28;20025;-52
2022/04/12 02:20:12;;;;;;;2.10;1.30;;;;;;;12.86;51.02;100908.63;5041272;28;20549;-51
2022/04/12 02:22:38;;;;;;;2.42;1.50;;;;;;;12.88;50.84;100911.25;5040623;28;20037;-54
2022/04/12 02:25:04;;;;;;;2.63;1.45;;;;;;;12.85;50.97;100910.34;5043317;28;20024;-55
2022/04/12 02:27:30;;;;;;;2.83;1.40;;;;;;;12.87;50.75;100904.31;5041354;28;20025;-51
2022/04/12 02:29:55;;;;;;;1.88;1.33;;;;;;;12.86;50.95;100898.28;5042439;28;20110;-53
2022/04/12 02:32:21;;;;;;;2.20;1.50;;;;;;;12.87;50.93;100906.91;5041007;28;20035;-53
2022/04/12 02:34:46;;;;;;;2.28;1.52;;;;;;;12.86;50.98;100906.06;5039436;28;20045;-51
2022/04/12 02:37:11;;;;;;;2.88;1.90;;;;;;;12.86;50.88;100900.88;5030965;28;20030;-50
2022/04/12 02:39:37;;;;;;;2.42;1.40;;;;;;;12.84;51.10;100897.38;5032751;28;20033;-55
2022/04/12 02:42:02;;;;;;;2.60;1.50;;;;;;;12.85;50.79;100896.53;5035266;28;20013;-51
2022/04/12 02:44:28;;;;;;;2.85;1.48;;;;;;;12.84;50.79;100895.66;5022005;28;20017;-54
2022/04/12 02:46:53;;;;;;;2.90;1.52;;;;;;;12.84;50.85;100898.22;5033092;28;20040;-54
2022/04/12 02:49:19;;;;;;;2.55;1.60;;;;;;;12.84;50.97;100890.47;5028922;28;20056;-55
2022/04/12 02:51:45;;;;;;;2.55;1.73;;;;;;;12.83;50.81;100891.34;5032825;28;20049;-51
2022/04/12 02:54:11;;;;;;;2.80;1.70;;;;;;;12.83;51.08;100888.75;5039076;28;20049;-55
2022/04/12 02:56:37;;;;;;;2.65;1.60;;;;;;;12.83;50.97;100881.00;5032694;28;21072;-55
2022/04/12 02:59:02;;;;;;;3.20;1.80;;;;;;;12.84;50.91;100879.28;5032608;28;20419;-55
2022/04/12 03:01:27;;;;;;;2.15;1.48;;;;;;;12.83;50.90;100872.34;5035912;28;20025;-54
2022/04/12 03:03:53;;;;;;;3.15;1.60;;;;;;;12.82;50.84;100871.47;5032540;28;20026;-54
2022/04/12 03:06:18;;;;;;;3.67;1.50;;;;;;;12.83;51.07;100878.41;5034237;28;20013;-54
2022/04/12 03:08:44;;;;;;;3.10;1.40;;;;;;;12.84;50.80;100874.09;5035249;28;20345;-52
2022/04/12 03:11:09;;;;;;;2.50;1.55;;;;;;;12.82;50.93;100868.91;5035084;28;20025;-51
2022/04/12 03:13:34;;;;;;;3.05;1.67;;;;;;;12.84;50.81;100871.50;5036409;28;20025;-54
2022/04/12 03:16:00;;;;;;;2.42;1.60;;;;;;;12.82;50.95;100865.41;5036292;28;20052;-52
2022/04/12 03:18:25;;;;;;;3.42;1.70;;;;;;;12.82;51.13;100861.13;5035990;28;20036;-53
2022/04/12 03:20:51;;;;;;;3.63;1.65;;;;;;;12.82;50.98;100850.78;5035782;28;20555;-53
2022/04/12 03:23:18;;;;;;;2.35;1.75;;;;;;;12.82;50.98;100860.25;5036959;28;20045;-54
2022/04/12 03:25:43;;;;;;;2.75;1.80;;;;;;;12.82;51.02;100849.91;5038553;28;20023;-54
2022/04/12 03:28:09;;;;;;;3.15;1.75;;;;;;;12.81;51.06;100849.03;5037325;28;20032;-54
2022/04/12 03:30:34;;;;;;;2.60;1.33;;;;;;;12.81;51.07;100840.41;5037186;28;20067;-51
2022/04/12 03:33:00;;;;;;;3.45;1.58;;;;;;;12.80;50.99;100836.94;5034818;28;20040;-54
2022/04/12 03:35:25;;;;;;;3.58;1.70;;;;;;;12.80;50.84;100842.13;5037316;28;20037;-52
2022/04/12 03:37:50;;;;;;;2.83;1.70;;;;;;;12.80;50.95;100849.88;5036026;28;20103;-53
2022/04/12 03:40:16;;;;;;;2.75;1.73;;;;;;;12.80;51.17;100846.44;5037584;28;20121;-53
2022/04/12 03:42:42;;;;;;;2.20;1.50;;;;;;;12.80;50.82;100847.28;5036765;28;20111;-53
2022/04/12 03:45:07;;;;;;;3.22;1.73;;;;;;;12.80;51.04;100846.44;5032947;28;20117;-54
2022/04/12 03:47:33;;;;;;;3.22;1.90;;;;;;;12.80;50.80;100852.47;5036496;28;20346;-53
2022/04/12 03:49:58;;;;;;;2.60;1.73;;;;;;;12.80;50.91;100856.78;5028920;28;20066;-52
2022/04/12 03:52:23;;;;;;;2.90;1.85;;;;;;;12.79;51.16;100861.06;5028302;28;20061;-51
2022/04/12 03:54:49;;;;;;;3.50;1.85;;;;;;;12.80;51.07;100852.47;5026003;28;20482;-51
2022/04/12 03:57:14;;;;;;;3.00;1.85;;;;;;;12.79;51.11;100848.13;5026281;28;20486;-51
2022/04/12 03:59:39;;;;;;;2.60;1.55;;;;;;;12.78;51.04;100828.31;5026519;28;20048;-55
2022/04/12 04:02:05;;;;;;;3.30;1.80;;;;;;;12.78;51.04;100817.97;5026438;28;20025;-53
2022/04/12 04:04:30;;;;;;;2.78;1.70;;;;;;;12.79;50.80;100814.50;5024945;28;20036;-53
2022/04/12 04:06:56;;;;;;;2.35;1.55;;;;;;;12.79;51.10;100821.41;5029042;28;20208;-50
2022/04/12 04:09:21;;;;;;;2.72;1.58;;;;;;;12.78;51.08;100841.22;5030563;28;20442;-50
2022/04/12 04:11:48;;;;;;;2.85;1.83;;;;;;;12.77;50.96;100834.31;5029602;28;20445;-51
2022/04/12 04:14:15;;;;;;;3.33;1.83;;;;;;;12.79;50.81;100826.56;5027995;28;20041;-54
2022/04/12 04:16:41;;;;;;;3.25;1.77;;;;;;;12.78;50.83;100833.47;5029715;28;20045;-55
2022/04/12 04:19:09;;;;;;;3.50;1.98;;;;;;;12.78;50.88;100843.81;5028737;28;20445;-55
2022/04/12 04:21:36;;;;;;;3.53;1.92;;;;;;;12.78;50.96;100846.41;5031482;28;20049;-54
2022/04/12 04:24:01;;;;;;;2.97;1.92;;;;;;;12.77;51.03;100836.91;5032030;28;20114;-54
2022/04/12 04:26:27;;;;;;;3.53;1.70;;;;;;;12.77;50.95;100841.19;5031637;28;20655;-54
2022/04/12 04:28:52;;;;;;;2.88;1.65;;;;;;;12.77;50.89;100836.91;5031046;28;20036;-53
2022/04/12 04:31:17;;;;;;;3.88;1.65;;;;;;;12.78;50.85;100830.88;5032419;28;20069;-54
2022/04/12 04:33:43;;;;;;;3.03;1.77;;;;;;;12.77;50.79;100844.66;5031035;28;20112;-52
2022/04/12 04:36:08;;;;;;;2.70;1.80;;;;;;;12.77;51.06;100841.19;5035494;28;20574;-54
2022/04/12 04:38:33;;;;;;;4.05;2.28;;;;;;;12.76;51.06;100844.63;5034403;28;20108;-52
2022/04/12 04:40:59;;;;;;;3.03;1.83;;;;;;;12.75;50.98;100840.28;5033151;28;20053;-54
2022/04/12 04:43:25;;;;;;;3.08;1.85;;;;;;;12.76;50.94;100842.03;5035214;28;20057;-54
2022/04/12 04:45:50;;;;;;;3.70;1.80;;;;;;;12.76;51.02;100835.16;5035621;28;20428;-54
2022/04/12 04:48:15;;;;;;;2.80;1.77;;;;;;;12.75;50.95;100837.69;5035194;28;20484;-50
2022/04/12 04:50:41;;;;;;;3.90;2.08;;;;;;;12.74;50.97;100844.56;5035242;28;20037;-54
2022/04/12 04:53:10;;;;;;;4.82;2.45;;;;;;;12.74;50.84;100857.50;5035696;28;20017;-51
2022/04/12 04:55:37;;;;;;;3.70;1.90;;;;;;;12.74;51.07;100864.41;5026155;28;20053;-54
2022/04/12 04:58:03;;;;;;;2.80;1.85;;;;;;;12.75;51.01;100873.91;5024188;28;20138;-54
2022/04/12 05:00:34;;;;;;;3.83;2.53;;;;;;;12.74;51.03;100867.84;5022778;28;20032;-52
2022/04/12 05:03:00;;;;;;;3.50;2.40;;;;;;;12.73;51.09;100876.47;5022877;28;20032;-51
2022/04/12 05:05:27;;;;;;;2.65;1.65;;;;;;;12.74;50.87;100890.25;5022869;28;20010;-55
2022/04/12 05:07:54;;;;;;;3.88;2.25;;;;;;;12.74;51.00;100887.69;5022253;28;20464;-55
2022/04/12 05:10:29;;;;;;;3.53;2.17;;;;;;;12.74;50.90;100888.53;5026491;28;20017;-52
2022/04/12 05:12:56;;;;;;;4.45;2.30;;;;;;;12.73;50.80;100876.47;5027505;28;20048;-55
2022/04/12 05:15:22;;;;;;;3.58;2.00;;;;;;;12.74;50.87;100869.56;5029577;28;20053;-54
2022/04/12 05:17:53;;;;;;;3.30;1.95;;;;;;;12.74;50.91;100865.25;5031229;28;20056;-51
2022/04/12 05:20:20;;;;;;;4.65;2.50;;;;;;;12.72;50.70;100859.19;5032147;28;20365;-54
2022/04/12 05:22:46;;;;;;;4.15;2.30;;;;;;;12.73;50.86;100854.88;5032964;28;20417;-51
2022/04/12 05:25:11;;;;;;;4.25;2.30;;;;;;;12.72;50.82;100859.19;5032068;28;20078;-55
2022/04/12 05:27:37;;;;;;;4.07;2.20;;;;;;;12.73;50.81;100855.78;5032377;28;20025;-51
2022/04/12 05:30:07;;;;;;;4.50;2.40;;;;;;;12.73;50.66;100855.78;5030714;28;20033;-54
2022/04/12 05:32:33;;;;;;;4.45;2.30;;;;;;;12.73;50.74;100855.78;5030134;28;20354;-54
2022/04/12 05:34:58;;;;;;;2.85;1.73;;;;;;;12.73;50.82;100855.78;5034730;28;20035;-53
2022/04/12 05:37:23;;;;;;;3.85;2.15;;;;;;;12.73;50.72;100855.78;5032179;28;20044;-50
2022/04/12 05:39:49;;;;;;;3.75;2.45;;;;;;;12.73;50.60;100860.06;5033624;28;20439;-52
2022/04/12 05:42:14;;;;;;;4.22;2.20;;;;;;;12.72;50.69;100859.19;5034034;28;20393;-51
2022/04/12 05:44:39;;;;;;;4.32;2.20;;;;;;;12.73;50.91;100857.47;5034081;28;20021;-53
2022/04/12 05:47:09;;;;;;;3.58;2.03;;;;;;;12.72;50.67;100856.63;5033046;28;20252;-54
2022/04/12 05:49:35;;;;;;;3.65;2.10;;;;;;;12.72;50.82;100854.03;5034262;28;20031;-54
2022/04/12 05:52:00;;;;;;;4.22;2.20;;;;;;;12.72;50.82;100851.44;5036027;28;20401;-54
2022/04/12 05:54:25;;;;;;;5.10;1.92;;;;;;;12.72;50.43;100861.78;5035238;28;20357;-52
2022/04/12 05:56:51;;;;;;;3.22;1.90;;;;;;;12.72;50.82;100874.72;5037371;28;20495;-54
2022/04/12 05:59:16;;;;;;;3.80;2.40;;;;;;;12.73;50.70;100870.41;5035996;28;20021;-50
2022/04/12 06:01:42;;;;;;;4.38;2.25;;;;;;;12.71;50.82;100867.78;5037040;28;20044;-55
2022/04/12 06:04:08;;;;;;;4.20;2.35;;;;;;;12.72;50.51;100859.19;5037478;28;20021;-54
2022/04/12 06:06:34;;;;;;;4.15;2.00;;;;;;;12.72;50.80;100864.38;5036614;28;20033;-54
2022/04/12 06:09:01;;;;;;;3.60;2.30;;;;;;;12.72;50.57;100863.47;5037836;28;20063;-54
2022/04/12 06:11:27;;;;;;;4.40;2.15;;;;;;;12.71;50.65;100867.78;5029084;28;20021;-54
2022/04/12 06:13:52;;;;;;;3.80;2.33;;;;;;;12.72;50.59;100864.38;5027432;28;20498;-53
2022/04/12 06:16:18;;;;;;;5.25;2.53;;;;;;;12.72;50.56;100864.38;5029342;28;20046;-54
2022/04/12 06:18:43;;;;;;;3.38;2.20;;;;;;;12.71;50.55;100862.63;5024515;28;20033;-55
2022/04/12 06:21:09;;;;;;;3.70;2.08;;;;;;;12.72;50.59;100866.06;5031248;28;20454;-53
2022/04/12 06:23:34;;;;;;;4.88;2.42;;;;;;;12.72;50.75;100864.38;5029065;28;20080;-53
2022/04/12 06:25:59;;;;;;;4.70;2.40;;;;;;;12.72;50.58;100871.25;5031262;28;20026;-52
2022/04/12 06:28:25;;;;;;;3.67;2.28;;;;;;;12.73;50.53;100875.56;5028233;28;20852;-54
2022/04/12 06:30:50;;;;;;;4.55;2.22;;;;;;;12.73;50.45;100870.41;5027934;28;20033;-53
2022/04/12 06:33:16;;;;;;;3.08;1.83;;;;;;;12.73;50.51;100865.22;5029764;28;20052;-54
2022/04/12 06:35:41;;;;;;;3.17;1.80;;;;;;;12.71;50.68;100867.78;5027362;28;20175;-54
2022/04/12 06:38:08;;;;;;;3.10;2.00;;;;;;;12.72;50.72;100869.53;5028191;28;20048;-54
2022/04/12 06:40:35;;;;;;;4.28;2.08;;;;;;;12.72;50.68;100869.53;5028411;28;20102;-54
2022/04/12 06:43:00;;;;;;;3.17;1.80;;;;;;;12.73;50.46;100870.41;5030269;28;20362;-51
2022/04/12 06:45:26;;;;;;;3.40;1.77;;;;;;;12.72;50.77;100864.38;5031229;28;20020;-53
2022/04/12 06:47:56;;;;;;;4.57;1.88;;;;;;;12.72;50.83;100879.88;5030092;28;20160;-54
2022/04/12 06:50:22;;;;;;;3.35;1.83;;;;;;;12.72;50.60;100872.13;5032140;28;20104;-54
2022/04/12 06:52:48;;;;;;;2.65;1.67;;;;;;;12.72;50.54;100860.91;5031788;28;20024;-54
2022/04/12 06:55:15;;;;;;;2.85;1.60;;;;;;;12.72;50.64;100854.03;5029008;28;20029;-54
2022/04/12 06:57:41;;;;;;;3.38;1.63;;;;;;;12.73;50.44;100853.19;5034441;28;20036;-54
2022/04/12 07:00:07;;;;;;;3.70;2.03;;;;;;;12.71;50.70;100857.44;5030926;28;20353;-55
2022/04/12 07:02:33;;;;;;;3.03;1.75;;;;;;;12.72;50.63;100864.38;5032824;28;20025;-55
2022/04/12 07:05:00;;;;;;;3.63;2.00;;;;;;;12.72;50.48;100861.78;5035162;28;20585;-53
2022/04/12 07:07:25;;;;;;;4.03;1.85;;;;;;;12.72;50.59;100860.91;5036136;28;20040;-53
2022/04/12 07:09:51;;;;;;;2.58;1.42;;;;;;;12.73;50.58;100850.59;5036539;28;20029;-54
2022/04/12 07:12:16;;;;;;;4.25;1.60;;;;;;;12.71;50.76;100854.88;5034503;28;20027;-49
2022/04/12 07:14:41;;;;;;;2.55;1.60;;;;;;;12.72;50.63;100853.13;5036847;28;20116;-54
2022/04/12 07:17:07;;;;;;;3.65;1.75;;;;;;;12.72;50.51;100855.72;5035195;28;20048;-51
2022/04/12 07:19:32;;;;;;;2.67;1.92;;;;;;;12.72;50.60;100854.03;5038057;28;20033;-51
2022/04/12 07:21:58;;;;;;;2.20;1.50;;;;;;;12.72;50.75;100859.19;5035818;28;20025;-52
2022/04/12 07:24:23;;;;;;;2.97;1.75;;;;;;;12.72;50.57;100863.47;5038583;28;20319;-51
2022/04/12 07:26:49;;;;;;;2.85;1.60;;;;;;;12.73;50.48;100870.41;5037937;28;20112;-49
2022/04/12 07:29:14;;;;;;;3.47;1.90;;;;;;;12.73;50.72;100860.94;5037871;28;20033;-54
2022/04/12 07:31:40;;;;;;;2.83;1.70;;;;;;;12.73;50.66;100850.59;5052025;28;20041;-54
2022/04/12 07:34:05;;;;;;;3.22;1.75;;;;;;;12.73;50.70;100855.78;5038204;28;20470;-53
2022/04/12 07:36:30;;;;;;;3.22;1.67;;;;;;;12.73;50.64;100849.72;5038532;28;20028;-50
2022/04/12 07:38:56;;;;;;;5.22;2.03;;;;;;;12.74;50.60;100862.66;5036594;28;20036;-52
2022/04/12 07:41:21;;;;;;;3.70;1.85;;;;;;;12.74;50.78;100852.31;5029311;28;20036;-50
2022/04/12 07:43:47;;;;;;;3.53;1.50;;;;;;;12.74;50.64;100846.28;5029345;28;20025;-50
2022/04/12 07:46:14;;;;;;;2.60;1.67;;;;;;;12.76;50.53;100854.97;5031337;28;20032;-50
2022/04/12 07:48:40;;;;;;;3.30;1.83;;;;;;;12.75;50.66;100854.09;5028574;28;20029;-52
2022/04/12 07:51:06;;;;;;;3.22;1.90;;;;;;;12.76;50.66;100855.84;5025204;28;20100;-51
2022/04/12 07:53:31;;;;;;;2.20;1.50;;;;;;;12.75;50.74;100851.50;5028331;28;20159;-50
2022/04/12 07:55:56;;;;;;;3.17;1.92;;;;;;;12.76;50.73;100857.56;5028291;28;20036;-53
2022/04/12 07:58:22;;;;;;;3.85;1.88;;;;;;;12.76;50.75;100862.72;5029315;28;20366;-52
2022/04/12 08:00:47;;;;;;;3.30;2.03;;;;;;;12.76;50.75;100854.97;5032130;28;20108;-54
2022/04/12 08:03:13;;;;;;;2.85;1.75;;;;;;;12.76;50.82;100850.66;5032807;28;20032;-51
2022/04/12 08:05:39;;;;;;;2.80;1.60;;;;;;;12.75;50.72;100859.25;5028578;28;20021;-51
2022/04/12 08:08:05;;;;;;;3.65;1.67;;;;;;;12.75;50.80;100858.41;5032788;28;20016;-51
2022/04/12 08:10:31;;;;;;;3.42;1.60;;;;;;;12.75;50.92;100854.09;5029440;28;20041;-51
2022/04/12 08:12:57;;;;;;;3.88;1.90;;;;;;;12.76;50.78;100861.00;5029520;28;20446;-50
2022/04/12 08:15:23;;;;;;;3.50;1.77;;;;;;;12.76;50.98;100861.00;5027929;28;20046;-52
2022/04/12 08:17:49;;;;;;;3.30;1.92;;;;;;;12.77;50.96;100859.28;5034007;28;20029;-49
2022/04/12 08:20:15;;;;;;;3.75;1.92;;;;;;;12.77;50.85;100862.75;5033045;28;20497;-51
2022/04/12 08:22:42;;;;;;;4.72;2.08;;;;;;;12.77;50.86;100862.75;5034827;28;20109;-50
2022/04/12 08:25:08;;;;;;;2.88;1.52;;;;;;;12.77;50.95;100862.75;5031954;28;20029;-53
2022/04/12 08:27:34;;;;;;;4.25;1.90;;;;;;;12.77;50.95;100862.75;5034695;28;20018;-51
2022/04/12 08:30:00;;;;;;;3.53;1.85;;;;;;;12.78;50.94;100858.44;5032198;28;20017;-51
2022/04/12 08:32:25;;;;;;;3.63;1.95;;;;;;;12.78;51.03;100858.44;5034277;28;20070;-53
2022/04/12 08:34:51;;;;;;;3.72;1.90;;;;;;;12.78;51.04;100859.34;5033850;28;20071;-53
2022/04/12 08:37:17;;;;;;;2.92;1.85;;;;;;;12.79;51.08;100855.88;5033686;28;20022;-54
2022/04/12 08:39:42;;;;;;;3.83;2.00;;;;;;;12.79;50.75;100850.72;5035523;28;20025;-53
2022/04/12 08:42:08;;;;;;;3.03;1.98;;;;;;;12.79;50.86;100861.06;5034329;28;20044;-53
2022/04/12 08:44:36;;;;;;;2.80;1.73;;;;;;;12.80;50.92;100855.03;5033817;28;20397;-52
2022/04/12 08:47:04;;;;;;;4.57;1.88;;;;;;;12.79;50.94;100842.94;5035476;28;20025;-51
2022/04/12 08:49:31;;;;;;;4.47;2.10;;;;;;;12.80;50.86;100836.94;5035210;28;20441;-51
2022/04/12 08:51:56;;;;;;;3.28;2.00;;;;;;;12.80;50.78;100829.19;5035336;28;21727;-50
2022/04/12 08:54:23;;;;;;;3.17;1.90;;;;;;;12.81;51.09;100819.72;5035609;28;20028;-51
2022/04/12 08:56:50;;;;;;;3.13;2.00;;;;;;;12.80;50.86;100826.59;5034746;28;22382;-50
2022/04/12 08:59:17;;;;;;;4.93;2.30;;;;;;;12.82;50.91;100824.03;5036310;28;20067;-52
2022/04/12 09:01:43;;;;;;;3.50;1.95;;;;;;;12.81;50.92;100823.19;5036157;28;20443;-51
2022/04/12 09:04:10;;;;;;;3.97;2.17;;;;;;;12.80;50.90;100816.25;5035302;28;20060;-54
2022/04/12 09:06:50;;;;;;;3.42;2.00;;;;;;;12.83;50.88;100825.78;5037090;28;20016;-53
2022/04/12 09:09:18;;;;;;;3.90;2.10;;;;;;;12.81;51.00;100820.59;5035844;28;20457;-50
2022/04/12 09:11:55;;;;;;;2.97;1.92;;;;;;;12.83;50.81;100820.63;5027837;28;20094;-50
2022/04/12 09:14:20;;;;;;;4.10;1.90;;;;;;;12.81;50.92;100828.34;5025489;28;20029;-50
2022/04/12 09:16:46;;;;;;;3.65;1.98;;;;;;;12.81;51.16;100828.34;5031259;28;20045;-51
2022/04/12 09:19:12;;;;;;;3.50;2.03;;;;;;;12.82;51.19;100824.03;5029781;28;20115;-50
2022/04/12 09:21:47;;;;;;;4.57;2.00;;;;;;;12.83;51.10;100813.75;5028534;28;20025;-51
2022/04/12 09:24:22;;;;;;;5.30;2.10;;;;;;;12.84;51.30;100801.69;5026983;28;20033;-54
2022/04/12 09:26:57;;;;;;;5.68;1.98;;;;;;;12.84;51.04;100791.34;5028938;28;20017;-51
2022/04/12 09:29:27;;;;;;;3.55;1.90;;;;;;;12.83;51.04;100790.47;5026725;28;20458;-51
2022/04/12 09:31:56;;;;;;;5.00;2.28;;;;;;;12.83;50.98;100798.22;5027124;28;20029;-52
2022/04/12 09:34:23;;;;;;;3.08;1.65;;;;;;;12.83;50.96;100798.22;5030469;28;20029;-50
2022/04/12 09:36:49;;;;;;;3.67;2.13;;;;;;;12.83;51.13;100790.47;5027319;28;20027;-54
2022/04/12 09:39:19;;;;;;;3.45;1.90;;;;;;;12.83;51.24;100785.31;5047074;28;20346;-52
2022/04/12 09:41:47;;;;;;;3.40;2.00;;;;;;;12.84;51.16;100788.75;5030015;28;20009;-53
2022/04/12 09:44:17;;;;;;;3.95;1.92;;;;;;;12.84;50.89;100789.59;5030411;28;20104;-50
2022/04/12 09:46:44;;;;;;;2.78;1.80;;;;;;;12.84;51.08;100796.50;5030209;28;20012;-51
2022/04/12 09:49:10;;;;;;;3.95;2.03;;;;;;;12.84;51.12;100794.78;5030324;28;20599;-51
2022/04/12 09:51:36;;;;;;;4.63;2.20;;;;;;;12.87;51.02;100790.50;5030925;28;20132;-50
2022/04/12 09:54:03;;;;;;;4.88;2.00;;;;;;;12.85;51.21;100798.25;5032415;28;20025;-53
2022/04/12 09:56:30;;;;;;;3.17;1.90;;;;;;;12.87;51.20;100800.88;5028893;28;20117;-52
2022/04/12 09:58:58;;;;;;;4.20;2.10;;;;;;;12.85;51.21;100799.09;5032868;28;20017;-52
2022/04/12 10:01:24;;;;;;;5.65;2.03;;;;;;;12.88;51.11;100798.31;5030561;28;20032;-51
2022/04/12 10:03:52;;;;;;;3.78;2.05;;;;;;;12.88;51.27;100797.44;5032022;28;20014;-55
2022/04/12 10:06:25;;;;;;;5.07;2.10;;;;;;;12.89;51.05;100804.38;5035136;28;20025;-51
2022/04/12 10:08:54;;;;;;;4.28;2.20;;;;;;;12.88;51.18;100797.44;5031791;28;20081;-55
2022/04/12 10:11:20;;;;;;;3.72;1.80;;;;;;;12.89;51.16;100794.03;5033306;28;20151;-54
2022/04/12 10:13:46;;;;;;;3.42;2.10;;;;;;;12.89;51.18;100786.25;5032613;28;20100;-50
2022/04/12 10:16:17;;;;;;;3.38;2.22;;;;;;;12.90;51.24;100780.22;5032036;28;20074;-54
2022/04/12 10:18:44;;;;;;;6.00;2.03;;;;;;;12.89;51.16;100770.75;5033091;28;20017;-51
2022/04/12 10:21:11;;;;;;;4.57;2.20;;;;;;;12.91;51.17;100766.44;5033691;28;20052;-52
2022/04/12 10:23:40;;;;;;;4.55;2.30;;;;;;;12.91;51.16;100761.28;5033672;28;20047;-51
2022/04/12 10:26:07;;;;;;;3.58;1.90;;;;;;;12.92;51.07;100763.03;5034189;28;20361;-51
2022/04/12 10:28:33;;;;;;;3.53;2.15;;;;;;;12.93;51.10;100764.78;5032719;28;20480;-51
2022/04/12 10:31:15;;;;;;;4.43;2.10;;;;;;;12.94;51.31;100756.19;5035806;28;20025;-52
2022/04/12 10:33:40;;;;;;;4.45;2.28;;;;;;;12.94;51.37;100751.88;5034731;28;20100;-50
2022/04/12 10:36:06;;;;;;;3.63;2.10;;;;;;;12.95;51.35;100756.19;5034897;28;20425;-51
2022/04/12 10:38:39;;;;;;;2.80;1.80;;;;;;;12.98;51.32;100750.22;5037331;28;20048;-50
2022/04/12 10:41:32;;;;;;;3.58;2.10;;;;;;;12.96;51.18;100739.84;5029099;28;20025;-51
2022/04/12 10:43:58;;;;;;;5.20;2.15;;;;;;;12.97;51.25;100745.88;5030703;28;20104;-51
2022/04/12 10:46:23;;;;;;;4.75;2.13;;;;;;;12.99;51.22;100749.38;5031302;28;20374;-50
2022/04/12 10:48:56;;;;;;;4.55;2.35;;;;;;;12.99;51.43;100741.59;5033925;28;20022;-51
2022/04/12 10:51:37;;;;;;;4.72;2.33;;;;;;;13.01;51.41;100742.50;5036439;28;20040;-53
2022/04/12 10:54:03;;;;;;;4.00;2.22;;;;;;;12.99;51.27;100744.19;5030854;28;20021;-52
2022/04/12 10:56:28;;;;;;;3.90;2.08;;;;;;;13.00;51.59;100735.56;5035040;28;20353;-52
2022/04/12 10:58:54;;;;;;;3.47;2.08;;;;;;;13.01;51.41;100727.84;5034005;28;20029;-51
2022/04/12 11:01:33;;;;;;;3.35;2.08;;;;;;;13.03;51.48;100722.69;5030493;28;20036;-51
2022/04/12 11:04:03;;;;;;;6.22;2.22;;;;;;;13.04;51.38;100718.38;5033385;28;20013;-50
2022/04/12 11:06:31;;;;;;;3.88;2.22;;;;;;;13.02;51.20;100724.41;5034243;28;20020;-50
2022/04/12 11:09:05;;;;;;;4.88;2.25;;;;;;;13.04;51.36;100724.44;5032049;28;20426;-52
2022/04/12 11:11:39;;;;;;;4.63;2.08;;;;;;;13.04;51.28;100731.31;5032772;28;20441;-51
2022/04/12 11:14:24;;;;;;;4.25;2.10;;;;;;;13.09;51.41;100745.22;5032038;28;20021;-54
2022/04/12 11:16:51;;;;;;;4.35;2.10;;;;;;;13.05;51.50;100743.41;5033337;28;20045;-52
2022/04/12 11:19:21;;;;;;;5.03;2.10;;;;;;;13.05;51.39;100739.09;5034199;28;20021;-51
2022/04/12 11:21:50;;;;;;;5.25;2.28;;;;;;;13.08;51.58;100748.63;5032015;28;20021;-51
2022/04/12 11:24:17;;;;;;;3.30;1.70;;;;;;;13.08;51.51;100740.88;5033976;28;20036;-50